Sentinel — D5FA7 — position and weather

sailwx.info

Track history (hours):
 
Tides and Currents Weather Stations Pressure Air Temp Water Temp Dewpoint Dewpoint Depression Visibility Wind Speed Wind Dir Waves Ship Positions

Sentinel

Last reported at 2018-Jul-27 16:14 UTC. Time now 2018-Aug-16 07:58 UTC.
Position S 34°38' E 018°45'.
Warning: this ship's position is 19 days out of date.

Length 199 m; draft 10.9 m.

Type: Cargo ship. MMSI: 635961385.

Date/timePositionNaut miles runAvg speedWind from/ knotsBaromVisibWave heightAir tempDewpointWater temp
2018-Jul-27 16:14S 34°38' E 018°45'311.2
2018-Jul-27 15:58S 34°37' E 018°42'511.2
2018-Jul-27 15:30S 34°34' E 018°36'611.2
2018-Jul-27 14:57S 34°31' E 018°30'511.0
2018-Jul-27 14:30S 34°29' E 018°24'510.3
2018-Jul-27 13:59S 34°27' E 018°19'1 1.6
2018-Jul-27 13:30S 34°26' E 018°18'1 1.5
2018-Jul-27 13:01S 34°26' E 018°19'3 5.7
2018-Jul-27 12:30S 34°24' E 018°17'6 9.5
2018-Jul-27 11:50S 34°18' E 018°14'410.1
2018-Jul-27 11:29S 34°15' E 018°12'510.0
2018-Jul-27 11:00S 34°10' E 018°10'510.1
2018-Jul-27 10:31S 34°06' E 018°08'510.3
2018-Jul-27 10:00S 34°01' E 018°06'510.3
2018-Jul-27 09:30S 33°56' E 018°04'810.9
2018-Jul-27 08:45S 33°48' E 018°01'410.9
2018-Jul-27 08:25S 33°45' E 018°00'1210.5
2018-Jul-27 07:17S 33°33' E 017°56'610.3
2018-Jul-27 06:45S 33°28' E 017°54'  
2018-Jul-23 00:15S 33°03' E 017°57'  
Track history (hours):
 
Tides and Currents Weather Stations Pressure Air Temp Water Temp Dewpoint Dewpoint Depression Visibility Wind Speed Wind Dir Waves Ship Positions

Sentinel

Last reported at 2018-Jul-27 16:14 UTC. Time now 2018-Aug-16 07:58 UTC.
Position S 34°38' E 018°45'.
Warning: this ship's position is 19 days out of date.

Length 199 m; draft 10.9 m.

Type: Cargo ship. MMSI: 635961385.

Date/timePositionNaut miles runAvg speedWind from/ knotsBaromVisibWave heightAir tempDewpointWater temp
2018-Jul-27 16:14S 34°38' E 018°45'311.2
2018-Jul-27 15:58S 34°37' E 018°42'511.2
2018-Jul-27 15:30S 34°34' E 018°36'611.2
2018-Jul-27 14:57S 34°31' E 018°30'511.0
2018-Jul-27 14:30S 34°29' E 018°24'510.3
2018-Jul-27 13:59S 34°27' E 018°19'1 1.6
2018-Jul-27 13:30S 34°26' E 018°18'1 1.5
2018-Jul-27 13:01S 34°26' E 018°19'3 5.7
2018-Jul-27 12:30S 34°24' E 018°17'6 9.5
2018-Jul-27 11:50S 34°18' E 018°14'410.1
2018-Jul-27 11:29S 34°15' E 018°12'510.0
2018-Jul-27 11:00S 34°10' E 018°10'510.1
2018-Jul-27 10:31S 34°06' E 018°08'510.3
2018-Jul-27 10:00S 34°01' E 018°06'510.3
2018-Jul-27 09:30S 33°56' E 018°04'810.9
2018-Jul-27 08:45S 33°48' E 018°01'410.9
2018-Jul-27 08:25S 33°45' E 018°00'1210.5
2018-Jul-27 07:17S 33°33' E 017°56'610.3
2018-Jul-27 06:45S 33°28' E 017°54'  
2018-Jul-23 00:15S 33°03' E 017°57'  

Dump ship's entire track history